createdAt,value
2023-01-01T00:01:31.958Z,67.87
2023-01-01T00:04:11.411Z,68.20
2023-01-01T00:06:59.069Z,68.35
2023-01-01T00:09:51.799Z,68.68
2023-01-01T00:12:40.224Z,68.68
2023-01-01T00:15:35.555Z,69.00
2023-01-01T00:18:15.060Z,67.87
2023-01-01T00:20:51.153Z,68.17
2023-01-01T00:23:31.016Z,68.95
2023-01-01T00:26:29.412Z,69.05
2023-01-01T00:29:11.360Z,69.45
2023-01-01T00:34:45.809Z,71.20
2023-01-01T00:37:28.479Z,71.70
2023-01-01T00:40:17.248Z,72.01
2023-01-01T00:42:57.363Z,71.81
2023-01-01T00:45:47.732Z,71.88
2023-01-01T00:48:44.203Z,71.99
2023-01-01T00:51:24.871Z,72.07
2023-01-01T00:56:58.863Z,72.07
2023-01-01T00:59:44.115Z,71.20
2023-01-01T01:02:44.136Z,71.08
2023-01-01T01:05:22.119Z,70.85
2023-01-01T01:08:07.527Z,71.74
2023-01-01T01:10:49.334Z,72.71
2023-01-01T01:13:23.589Z,73.60
2023-01-01T01:16:18.716Z,75.04
2023-01-01T01:19:04.757Z,75.77
2023-01-01T01:21:45.427Z,76.93
2023-01-01T01:24:38.800Z,76.94
2023-01-01T01:27:28.054Z,77.09
2023-01-01T01:30:20.975Z,77.34
2023-01-01T01:33:08.956Z,77.75
2023-01-01T01:35:51.176Z,77.60
2023-01-01T01:38:50.353Z,78.19
2023-01-01T01:41:28.876Z,77.99
2023-01-01T01:44:12.462Z,78.61
2023-01-01T01:47:01.970Z,78.47
2023-01-01T01:50:01.419Z,78.74
2023-01-01T01:52:41.716Z,79.03
2023-01-01T01:55:53.175Z,77.86
2023-01-01T01:58:55.244Z,77.08
2023-01-01T02:01:48.469Z,77.37
2023-01-01T02:04:37.428Z,77.48
2023-01-01T02:07:22.004Z,76.59
2023-01-01T02:10:16.138Z,76.75
2023-01-01T02:13:06.476Z,77.45
2023-01-01T02:19:34.175Z,79.68
2023-01-01T02:22:32.614Z,80.39
2023-01-01T02:26:06.013Z,81.33
2023-01-01T02:29:11.329Z,79.94
2023-01-01T02:32:13.152Z,79.21
2023-01-01T02:35:26.541Z,78.09
2023-01-01T02:38:11.637Z,77.57
2023-01-01T02:41:22.121Z,76.00
2023-01-01T02:44:20.384Z,76.10
2023-01-01T02:50:24.354Z,73.00
2023-01-01T02:57:08.858Z,70.78
2023-01-01T03:00:17.363Z,69.87
2023-01-01T03:03:43.617Z,68.73
2023-01-01T03:06:48.979Z,68.38
2023-01-01T03:10:10.895Z,67.43
2023-01-01T03:13:29.343Z,67.49
2023-01-01T03:16:37.583Z,66.20
2023-01-01T03:19:21.660Z,65.42
2023-01-01T03:21:59.514Z,65.81
2023-01-01T03:24:45.509Z,65.31
2023-01-01T03:27:33.111Z,65.38
2023-01-01T03:30:24.288Z,63.21
2023-01-01T03:33:56.859Z,62.82
2023-01-01T03:36:45.317Z,63.58
2023-01-01T03:39:29.851Z,63.62
2023-01-01T03:42:18.050Z,62.81
2023-01-01T03:45:10.993Z,61.77
2023-01-01T03:47:49.101Z,62.42
2023-01-01T03:50:33.387Z,62.37
2023-01-01T03:53:33.016Z,64.10
2023-01-01T03:56:34.479Z,65.01
2023-01-01T03:59:27.155Z,65.76
2023-01-01T04:02:14.562Z,65.90
2023-01-01T04:05:05.660Z,66.36
2023-01-01T04:10:38.259Z,66.96
2023-01-01T04:13:15.259Z,66.35
2023-01-01T04:15:51.912Z,66.70
2023-01-01T04:18:26.781Z,67.63
2023-01-01T04:21:12.349Z,68.53
2023-01-01T04:23:50.098Z,70.34
2023-01-01T04:26:28.695Z,71.15
2023-01-01T04:29:19.595Z,71.15
2023-01-01T04:32:26.407Z,73.43
2023-01-01T04:35:13.168Z,74.10
2023-01-01T04:40:54.290Z,74.74
2023-01-01T04:43:31.388Z,74.07
2023-01-01T04:46:22.137Z,73.84
2023-01-01T04:51:56.007Z,73.68
2023-01-01T04:54:41.312Z,73.44
2023-01-01T04:57:41.566Z,72.85
2023-01-01T05:00:27.459Z,73.16
2023-01-01T05:03:18.497Z,72.39
2023-01-01T05:06:18.965Z,71.03
2023-01-01T05:09:21.185Z,70.11
2023-01-01T05:12:24.311Z,70.47
2023-01-01T05:15:23.683Z,71.50
2023-01-01T05:24:02.174Z,75.46
2023-01-01T05:26:40.490Z,76.35
2023-01-01T05:32:30.466Z,77.73
2023-01-01T05:35:26.591Z,78.49
2023-01-01T05:38:28.199Z,78.40
2023-01-01T05:41:13.548Z,78.98
2023-01-01T05:44:00.690Z,79.53
2023-01-01T05:46:42.924Z,79.86
2023-01-01T05:49:32.465Z,80.51
2023-01-01T05:52:11.881Z,80.74
2023-01-01T05:54:55.179Z,79.75
2023-01-01T05:57:43.312Z,79.69
2023-01-01T06:00:27.403Z,80.10
2023-01-01T06:03:09.356Z,80.69
2023-01-01T06:06:18.069Z,80.97
2023-01-01T06:09:30.644Z,80.59
2023-01-01T06:12:09.924Z,80.75
2023-01-01T06:15:01.274Z,80.20
2023-01-01T06:18:05.315Z,80.04
2023-01-01T06:21:02.468Z,79.60
2023-01-01T06:24:22.610Z,79.08
2023-01-01T06:27:01.473Z,79.21
2023-01-01T06:29:51.333Z,79.14
2023-01-01T06:32:39.115Z,79.42
2023-01-01T06:35:19.414Z,79.39
2023-01-01T06:38:03.225Z,79.81
2023-01-01T06:40:40.037Z,79.98
2023-01-01T06:43:16.016Z,79.69
2023-01-01T06:46:11.776Z,79.32
2023-01-01T06:48:53.734Z,79.40
2023-01-01T06:51:49.197Z,79.27
2023-01-01T06:54:30.197Z,78.92
2023-01-01T06:57:26.225Z,78.76
2023-01-01T07:00:24.290Z,78.61
2023-01-01T07:03:03.272Z,78.11
2023-01-01T07:06:13.787Z,77.69
2023-01-01T07:09:00.196Z,76.76
2023-01-01T07:11:57.965Z,75.98
2023-01-01T07:14:42.536Z,76.02
2023-01-01T07:17:35.990Z,75.24
2023-01-01T07:20:35.209Z,75.14
2023-01-01T07:23:41.847Z,74.93
2023-01-01T07:29:32.028Z,74.81
2023-01-01T07:32:35.413Z,73.92
2023-01-01T07:35:27.184Z,74.02
2023-01-01T07:38:16.444Z,74.06
2023-01-01T07:43:59.432Z,74.71
2023-01-01T07:46:45.058Z,74.94
2023-01-01T07:49:37.902Z,74.92
2023-01-01T07:52:16.821Z,74.66
2023-01-01T07:55:02.934Z,73.55
2023-01-01T07:57:50.098Z,73.63
2023-01-01T08:01:09.179Z,73.35
2023-01-01T08:03:54.393Z,73.23
2023-01-01T08:06:49.597Z,73.20
2023-01-01T08:09:36.270Z,72.90
2023-01-01T08:16:07.106Z,72.64
2023-01-01T08:18:48.745Z,73.17
2023-01-01T08:21:28.148Z,73.31
2023-01-01T08:24:09.909Z,73.56
2023-01-01T08:27:21.017Z,73.31
2023-01-01T08:29:59.863Z,72.75
2023-01-01T08:33:13.013Z,72.69
2023-01-01T08:36:00.684Z,72.91
2023-01-01T08:38:49.249Z,73.48
2023-01-01T08:41:49.197Z,73.61
2023-01-01T08:47:36.286Z,74.34
2023-01-01T08:50:14.358Z,75.40
2023-01-01T08:53:07.748Z,76.18
2023-01-01T08:55:47.339Z,76.42
2023-01-01T08:58:33.830Z,76.39
2023-01-01T09:01:20.196Z,76.62
2023-01-01T09:07:01.633Z,77.46
2023-01-01T09:09:49.811Z,77.80
2023-01-01T09:12:51.027Z,78.09
2023-01-01T09:15:27.704Z,78.30
2023-01-01T09:18:16.019Z,78.30
2023-01-01T09:20:55.926Z,78.44
2023-01-01T09:23:55.590Z,79.02
2023-01-01T09:26:38.047Z,78.75
2023-01-01T09:29:29.518Z,78.75
2023-01-01T09:32:17.087Z,78.96
2023-01-01T09:35:08.154Z,78.86
2023-01-01T09:37:46.708Z,78.83
2023-01-01T09:40:49.166Z,78.01
2023-01-01T09:43:58.439Z,77.72
2023-01-01T09:46:39.931Z,77.83
2023-01-01T09:53:35.891Z,79.57
2023-01-01T09:56:14.744Z,79.14
2023-01-01T09:58:52.751Z,78.98
2023-01-01T10:05:32.424Z,79.09
2023-01-01T10:08:26.010Z,79.31
2023-01-01T10:11:13.472Z,79.28
2023-01-01T10:14:05.098Z,78.50
2023-01-01T10:16:53.035Z,77.95
2023-01-01T10:20:03.624Z,77.14
2023-01-01T10:22:51.088Z,77.22
2023-01-01T10:25:49.710Z,77.25
2023-01-01T10:28:39.888Z,76.86
2023-01-01T10:31:43.523Z,76.66
2023-01-01T10:34:39.636Z,76.73
2023-01-01T10:37:27.574Z,76.64
2023-01-01T10:40:39.971Z,76.27
2023-01-01T10:43:29.972Z,75.74
2023-01-01T10:46:17.767Z,74.67
2023-01-01T10:49:13.011Z,74.32
2023-01-01T10:51:52.865Z,74.25
2023-01-01T10:54:38.812Z,74.17
2023-01-01T10:57:57.462Z,74.31
2023-01-01T11:03:46.019Z,73.46
2023-01-01T11:06:31.788Z,74.15
2023-01-01T11:09:15.729Z,75.29
2023-01-01T11:12:07.928Z,76.03
2023-01-01T11:15:33.279Z,76.97
2023-01-01T11:18:23.231Z,77.06
2023-01-01T11:21:03.280Z,76.83
2023-01-01T11:27:34.498Z,77.83
2023-01-01T11:37:48.089Z,77.45
2023-01-01T11:40:43.389Z,77.29
2023-01-01T11:46:36.969Z,77.46
2023-01-01T11:52:58.761Z,77.15
2023-01-01T11:56:02.741Z,76.53
2023-01-01T11:59:14.153Z,76.49
2023-01-01T12:02:12.288Z,77.87
2023-01-01T12:05:04.029Z,78.04
2023-01-01T12:08:05.603Z,77.80
2023-01-01T12:11:00.612Z,77.59
2023-01-01T12:14:05.398Z,77.25
2023-01-01T12:17:06.494Z,77.32
2023-01-01T12:20:03.169Z,75.88
2023-01-01T12:23:00.384Z,74.95
2023-01-01T12:26:54.672Z,73.83
2023-01-01T12:29:59.313Z,73.38
2023-01-01T12:32:44.185Z,73.32
2023-01-01T12:36:19.180Z,73.62
2023-01-01T12:43:15.974Z,73.24
2023-01-01T12:46:47.737Z,72.71
2023-01-01T12:56:39.871Z,71.33
2023-01-01T12:59:35.698Z,71.37
2023-01-01T13:02:21.391Z,70.93
2023-01-01T13:05:36.817Z,70.80
2023-01-01T13:08:35.397Z,70.94
2023-01-01T13:11:25.211Z,71.09
2023-01-01T13:14:15.031Z,71.04
2023-01-01T13:17:01.647Z,70.20
2023-01-01T13:19:40.236Z,70.41
2023-01-01T13:22:49.624Z,70.64
2023-01-01T13:25:58.889Z,71.17
2023-01-01T13:28:55.669Z,71.26
2023-01-01T13:32:13.510Z,70.76
2023-01-01T13:35:30.615Z,70.94
2023-01-01T13:38:31.848Z,71.33
2023-01-01T13:41:49.685Z,71.26
2023-01-01T13:47:51.033Z,71.08
2023-01-01T13:50:47.822Z,71.20
2023-01-01T13:53:54.605Z,71.46
2023-01-01T13:56:57.335Z,71.73
2023-01-01T14:00:17.283Z,71.71
2023-01-01T14:03:08.592Z,72.07
2023-01-01T14:06:12.130Z,72.13
2023-01-01T14:09:17.692Z,72.19
2023-01-01T14:12:21.872Z,72.55
2023-01-01T14:15:15.743Z,72.73
2023-01-01T14:18:03.255Z,72.53
2023-01-01T14:21:09.479Z,72.75
2023-01-01T14:24:00.857Z,72.70
2023-01-01T14:26:47.689Z,72.71
2023-01-01T14:29:32.302Z,72.31
2023-01-01T14:32:36.094Z,71.37
2023-01-01T14:35:22.471Z,71.22
2023-01-01T14:38:02.153Z,71.86
2023-01-01T14:40:39.179Z,72.32
2023-01-01T14:43:31.683Z,72.45
2023-01-01T14:46:19.858Z,72.60
2023-01-01T14:49:15.752Z,72.59
2023-01-01T14:52:11.990Z,72.78
2023-01-01T14:55:04.015Z,73.21
2023-01-01T14:57:52.740Z,73.27
2023-01-01T15:00:51.895Z,73.65
2023-01-01T15:03:43.645Z,73.02
2023-01-01T15:06:35.590Z,72.49
2023-01-01T15:09:28.033Z,72.77
2023-01-01T15:12:06.840Z,73.12
2023-01-01T15:14:52.562Z,73.40
2023-01-01T15:17:36.792Z,73.45
2023-01-01T15:20:34.129Z,73.37
2023-01-01T15:23:37.908Z,73.14
2023-01-01T15:26:25.363Z,73.59
2023-01-01T15:29:11.243Z,73.16
2023-01-01T15:31:57.130Z,72.76
2023-01-01T15:34:42.018Z,72.25
2023-01-01T15:37:32.811Z,71.88
2023-01-01T15:41:17.680Z,71.67
2023-01-01T15:44:50.302Z,71.50
2023-01-01T15:47:37.302Z,72.12
2023-01-01T15:50:15.859Z,72.34
2023-01-01T15:53:02.502Z,72.75
2023-01-01T15:55:40.350Z,72.87
2023-01-01T15:58:30.942Z,73.06
2023-01-01T16:01:30.062Z,72.46
2023-01-01T16:04:28.758Z,72.91
2023-01-01T16:07:29.652Z,73.23
2023-01-01T16:10:19.980Z,73.58
2023-01-01T16:13:01.885Z,73.88
2023-01-01T16:15:49.585Z,74.12
2023-01-01T16:18:47.832Z,74.21
2023-01-01T16:21:27.850Z,74.40
2023-01-01T16:24:06.503Z,74.60
2023-01-01T16:26:53.132Z,74.71
2023-01-01T16:29:38.848Z,74.74
2023-01-01T16:32:31.432Z,75.00
2023-01-01T16:35:35.561Z,75.14
2023-01-01T16:38:38.710Z,75.11
2023-01-01T16:41:27.251Z,75.28
2023-01-01T16:44:20.705Z,75.30
2023-01-01T16:47:00.302Z,75.61
2023-01-01T16:49:43.794Z,75.78
2023-01-01T16:52:33.659Z,76.16
2023-01-01T16:55:18.508Z,76.62
2023-01-01T17:01:15.820Z,77.31
2023-01-01T17:04:00.705Z,77.05
2023-01-01T17:07:13.783Z,77.30
2023-01-01T17:09:51.040Z,77.74
2023-01-01T17:12:30.433Z,78.20
2023-01-01T17:15:07.170Z,78.59
2023-01-01T17:17:49.064Z,78.42
2023-01-01T17:20:36.155Z,78.54
2023-01-01T17:23:15.492Z,78.72
2023-01-01T17:26:11.991Z,78.78
2023-01-01T17:32:10.520Z,79.44
2023-01-01T17:42:00.704Z,79.95
2023-01-01T17:45:12.661Z,79.68
2023-01-01T17:48:25.302Z,79.33
2023-01-01T17:51:20.051Z,78.83
2023-01-01T17:54:05.653Z,78.68
2023-01-01T17:56:51.517Z,78.69
2023-01-01T17:59:38.733Z,78.64
2023-01-01T18:02:51.740Z,78.25
2023-01-01T18:05:41.996Z,77.74
2023-01-01T18:08:29.640Z,77.33
2023-01-01T18:11:09.590Z,77.42
2023-01-01T18:13:46.406Z,76.88
2023-01-01T18:16:32.816Z,76.26
2023-01-01T18:19:18.932Z,76.12
2023-01-01T18:22:05.515Z,76.20
2023-01-01T18:25:05.774Z,76.28
2023-01-01T18:27:49.042Z,76.04
2023-01-01T18:30:50.759Z,75.87
2023-01-01T18:33:59.987Z,75.72
2023-01-01T18:36:39.463Z,76.23
2023-01-01T18:39:36.377Z,76.16
2023-01-01T18:42:34.362Z,75.66
2023-01-01T18:45:32.451Z,75.69
2023-01-01T18:48:26.293Z,75.69
2023-01-01T18:51:38.522Z,75.75
2023-01-01T18:54:33.205Z,75.20
2023-01-01T18:57:25.236Z,75.34
2023-01-01T19:00:46.078Z,75.36
2023-01-01T19:03:53.475Z,75.42
2023-01-01T19:09:37.762Z,74.75
2023-01-01T19:12:42.331Z,74.67
2023-01-01T19:18:47.627Z,74.65
2023-01-01T19:21:27.315Z,74.51
2023-01-01T19:24:13.148Z,74.83
2023-01-01T19:27:16.066Z,74.99
2023-01-01T19:30:17.943Z,75.12
2023-01-01T19:33:12.639Z,75.19
2023-01-01T19:35:49.013Z,75.38
2023-01-01T19:38:45.824Z,75.24
2023-01-01T19:41:49.045Z,75.43
2023-01-01T19:44:35.944Z,74.91
2023-01-01T19:47:35.668Z,74.70
2023-01-01T19:50:18.684Z,74.56
2023-01-01T19:53:11.059Z,74.52
2023-01-01T19:55:58.518Z,74.56
2023-01-01T19:59:02.587Z,74.78
2023-01-01T20:02:17.696Z,74.72
2023-01-01T20:04:51.646Z,74.85
2023-01-01T20:07:58.470Z,74.68
2023-01-01T20:10:40.997Z,74.36
2023-01-01T20:13:27.572Z,74.66
2023-01-01T20:16:08.373Z,74.88
2023-01-01T20:18:58.341Z,74.74
2023-01-01T20:21:54.273Z,74.57
2023-01-01T20:24:32.990Z,74.76
2023-01-01T20:33:25.459Z,74.59
2023-01-01T20:36:27.604Z,74.57
2023-01-01T20:39:24.761Z,74.62
2023-01-01T20:42:00.820Z,74.38
2023-01-01T20:44:56.213Z,74.55
2023-01-01T20:47:42.460Z,74.63
2023-01-01T20:50:19.726Z,74.90
2023-01-01T20:53:15.977Z,75.35
2023-01-01T20:56:00.875Z,75.46
2023-01-01T20:58:52.159Z,75.29
2023-01-01T21:11:03.290Z,74.96
2023-01-01T21:13:45.560Z,74.56
2023-01-01T21:16:25.228Z,74.33
2023-01-01T21:19:03.503Z,74.71
2023-01-01T21:21:49.865Z,74.53
2023-01-01T21:27:53.960Z,74.67
2023-01-01T21:30:33.846Z,75.02
2023-01-01T21:33:14.495Z,75.16
2023-01-01T21:35:54.698Z,75.20
2023-01-01T21:38:53.089Z,75.17
2023-01-01T21:41:30.582Z,75.65
2023-01-01T21:44:38.875Z,75.51
2023-01-01T21:47:34.784Z,75.31
2023-01-01T21:50:31.468Z,75.18
2023-01-01T21:53:26.140Z,74.75
2023-01-01T21:56:04.237Z,74.95
2023-01-01T21:59:16.077Z,74.82
2023-01-01T22:02:05.548Z,74.71
2023-01-01T22:04:48.365Z,74.47
2023-01-01T22:10:36.235Z,75.71
2023-01-01T22:13:24.206Z,75.73
2023-01-01T22:19:09.827Z,75.74
2023-01-01T22:21:50.808Z,76.16
2023-01-01T22:24:40.510Z,77.00
2023-01-01T22:27:49.037Z,76.73
2023-01-01T22:31:00.454Z,76.85
2023-01-01T22:37:06.384Z,75.21
2023-01-01T22:42:43.172Z,74.59
2023-01-01T22:45:32.421Z,74.43
2023-01-01T22:48:46.369Z,74.51
2023-01-01T22:51:35.375Z,74.76
2023-01-01T22:57:29.404Z,74.32
2023-01-01T23:00:07.317Z,74.09
2023-01-01T23:02:56.429Z,74.02
2023-01-01T23:05:40.371Z,74.14
2023-01-01T23:11:24.632Z,73.31
2023-01-01T23:14:33.153Z,73.10
2023-01-01T23:17:29.218Z,73.30
2023-01-01T23:20:05.670Z,72.92
2023-01-01T23:22:55.915Z,72.65
2023-01-01T23:28:45.461Z,72.93
2023-01-01T23:31:27.893Z,73.05
2023-01-01T23:34:15.317Z,73.22
2023-01-01T23:36:53.631Z,73.10
2023-01-01T23:39:31.491Z,72.35
2023-01-01T23:42:13.987Z,72.55
2023-01-01T23:44:55.994Z,72.17
2023-01-01T23:47:52.850Z,72.13
2023-01-01T23:50:34.688Z,71.87
2023-01-01T23:53:22.994Z,72.33
2023-01-01T23:56:01.044Z,72.41
2023-01-01T23:58:40.503Z,71.50
